createdAt,value
2019-03-15T00:00:02.940Z,1.02
2019-03-15T00:01:02.971Z,0.92
2019-03-15T00:02:03.434Z,0.93
2019-03-15T00:03:03.754Z,0.9
2019-03-15T00:04:03.683Z,0.88
2019-03-15T00:05:03.707Z,0.78
2019-03-15T00:06:03.597Z,0.81
2019-03-15T00:07:03.931Z,0.98
2019-03-15T00:08:03.535Z,0.94
2019-03-15T00:09:03.268Z,1.2
2019-03-15T00:10:03.521Z,1.24
2019-03-15T00:11:04.366Z,1.02
2019-03-15T00:12:02.856Z,1.05
2019-03-15T00:13:03.219Z,1.02
2019-03-15T00:14:03.672Z,1.41
2019-03-15T00:15:03.337Z,1.11
2019-03-15T00:16:03.584Z,1.36
2019-03-15T00:17:03.469Z,1.05
2019-03-15T00:18:03.692Z,1.27
2019-03-15T00:19:03.567Z,1.42
2019-03-15T00:20:03.475Z,1.12
2019-03-15T00:21:03.487Z,1.06
2019-03-15T00:22:03.413Z,1.37
2019-03-15T00:23:03.469Z,1.48
2019-03-15T00:24:03.347Z,1.6
2019-03-15T00:25:03.363Z,1.66
2019-03-15T00:26:03.049Z,1.22
2019-03-15T00:27:03.350Z,1.56
2019-03-15T00:28:03.165Z,1.64
2019-03-15T00:29:02.969Z,1.65
2019-03-15T00:30:02.997Z,1.46
2019-03-15T00:31:03.143Z,1.46
2019-03-15T00:32:02.742Z,1.39
2019-03-15T00:33:02.894Z,1.58
2019-03-15T00:34:02.818Z,1.52
2019-03-15T00:35:03.081Z,1.38
2019-03-15T00:36:02.817Z,1.3
2019-03-15T00:37:03.574Z,1.46
2019-03-15T00:38:03.007Z,1.64
2019-03-15T00:39:03.130Z,1.64
2019-03-15T00:40:02.905Z,1.62
2019-03-15T00:41:02.878Z,1.54
2019-03-15T00:42:02.792Z,1.54
2019-03-15T00:43:02.973Z,1.63
2019-03-15T00:44:02.998Z,1.63
2019-03-15T00:45:03.000Z,2.01
2019-03-15T00:46:02.496Z,2.01
2019-03-15T00:47:02.999Z,1.52
2019-03-15T00:48:02.957Z,1.65
2019-03-15T00:49:03.387Z,1.84
2019-03-15T00:50:02.670Z,1.61
2019-03-15T00:51:03.597Z,1.68
2019-03-15T00:52:03.406Z,1.94
2019-03-15T00:53:03.641Z,1.7
2019-03-15T00:54:03.503Z,1.64
2019-03-15T00:55:03.641Z,1.48
2019-03-15T00:56:02.725Z,1.8
2019-03-15T00:57:03.383Z,1.48
2019-03-15T00:58:03.358Z,1.69
2019-03-15T00:59:03.748Z,1.94
2019-03-15T01:00:03.785Z,1.71
2019-03-15T01:01:03.560Z,1.71
2019-03-15T01:02:03.196Z,1.89
2019-03-15T01:03:03.246Z,1.81
2019-03-15T01:04:03.358Z,1.73
2019-03-15T01:05:03.752Z,1.78
2019-03-15T01:06:02.978Z,2.06
2019-03-15T01:07:03.178Z,2.17
2019-03-15T01:08:03.474Z,1.94
2019-03-15T01:09:03.214Z,1.83
2019-03-15T01:10:03.352Z,2.19
2019-03-15T01:11:03.477Z,2.22
2019-03-15T01:12:03.528Z,2.49
2019-03-15T01:13:03.420Z,1.96
2019-03-15T01:14:03.072Z,2.31
2019-03-15T01:15:02.992Z,2.51
2019-03-15T01:16:03.366Z,2.06
2019-03-15T01:17:02.963Z,2.31
2019-03-15T01:18:03.119Z,2.52
2019-03-15T01:19:03.001Z,2.59
2019-03-15T01:20:03.080Z,2.73
2019-03-15T01:21:02.845Z,2.09
2019-03-15T01:22:03.107Z,2.31
2019-03-15T01:23:03.009Z,2.89
2019-03-15T01:24:02.996Z,2.46
2019-03-15T01:25:02.932Z,2.46
2019-03-15T01:26:02.779Z,2.74
2019-03-15T01:27:03.001Z,3
2019-03-15T01:28:02.861Z,2.32
2019-03-15T01:29:02.850Z,2.67
2019-03-15T01:30:02.791Z,2.68
2019-03-15T01:31:02.869Z,2.64
2019-03-15T01:32:02.810Z,2.64
2019-03-15T01:33:03.365Z,2.68
2019-03-15T01:34:03.725Z,2.68
2019-03-15T01:35:03.898Z,2.84
2019-03-15T01:36:03.689Z,2.66
2019-03-15T01:37:03.448Z,2.74
2019-03-15T01:38:03.554Z,2.73
2019-03-15T01:39:03.533Z,3.31
2019-03-15T01:40:03.391Z,2.79
2019-03-15T01:41:04.468Z,2.96
2019-03-15T01:42:03.188Z,3.08
2019-03-15T01:43:03.723Z,3.05
2019-03-15T01:44:03.761Z,3.25
2019-03-15T01:45:02.991Z,3.44
2019-03-15T01:46:03.418Z,3.04
2019-03-15T01:47:03.405Z,2.54
2019-03-15T01:48:03.210Z,3.29
2019-03-15T01:49:03.174Z,2.71
2019-03-15T01:50:03.211Z,2.76
2019-03-15T01:51:03.227Z,2.76
2019-03-15T01:52:01.696Z,2.73
2019-03-15T01:53:03.109Z,2.89
2019-03-15T01:54:02.970Z,2.94
2019-03-15T01:55:03.041Z,2.82
2019-03-15T01:56:03.078Z,3.14
2019-03-15T01:57:03.040Z,2.68
2019-03-15T01:58:03.127Z,2.51
2019-03-15T01:59:02.759Z,2.51
2019-03-15T02:00:02.620Z,3.01
2019-03-15T02:01:04.782Z,2.92
2019-03-15T02:02:02.855Z,2.87
2019-03-15T02:03:03.427Z,2.98
2019-03-15T02:04:02.761Z,2.75
2019-03-15T02:05:03.675Z,3.51
2019-03-15T02:06:02.732Z,2.94
2019-03-15T02:07:03.774Z,2.62
2019-03-15T02:08:03.711Z,3.48
2019-03-15T02:09:03.383Z,2.88
2019-03-15T02:10:03.612Z,2.94
2019-03-15T02:11:03.906Z,2.84
2019-03-15T02:12:03.416Z,3.28
2019-03-15T02:13:03.454Z,3
2019-03-15T02:14:03.534Z,3.09
2019-03-15T02:15:03.670Z,2.89
2019-03-15T02:16:03.212Z,3.06
2019-03-15T02:17:03.503Z,2.86
2019-03-15T02:18:03.492Z,3.23
2019-03-15T02:19:03.549Z,3.26
2019-03-15T02:20:03.339Z,3.23
2019-03-15T02:21:03.334Z,2.94
2019-03-15T02:22:03.427Z,2.94
2019-03-15T02:23:03.076Z,3.35
2019-03-15T02:24:03.476Z,3.35
2019-03-15T02:25:03.487Z,4.27
2019-03-15T02:26:03.569Z,3.36
2019-03-15T02:27:03.207Z,3.86
2019-03-15T02:28:03.424Z,3.5
2019-03-15T02:29:03.139Z,3.39
2019-03-15T02:30:03.311Z,3.79
2019-03-15T02:31:03.081Z,3.05
2019-03-15T02:32:03.140Z,3
2019-03-15T02:33:03.047Z,3.01
2019-03-15T02:34:03.023Z,2.96
2019-03-15T02:35:03.319Z,2.78
2019-03-15T02:36:02.873Z,2.55
2019-03-15T02:37:03.058Z,3.52
2019-03-15T02:38:02.976Z,3.51
2019-03-15T02:39:03.254Z,2.98
2019-03-15T02:40:02.627Z,3.36
2019-03-15T02:41:03.060Z,2.68
2019-03-15T02:42:02.951Z,3.14
2019-03-15T02:43:02.697Z,3.01
2019-03-15T02:44:02.750Z,2.64
2019-03-15T02:45:03.049Z,2.82
2019-03-15T02:46:02.939Z,3.14
2019-03-15T02:47:03.683Z,2.86
2019-03-15T02:48:02.946Z,2.39
2019-03-15T02:49:03.637Z,3.25
2019-03-15T02:50:02.849Z,1.6
2019-03-15T02:51:02.846Z,1.54
2019-03-15T02:52:03.715Z,1.31
2019-03-15T02:53:03.604Z,1.32
2019-03-15T02:54:03.550Z,1.29
2019-03-15T02:55:03.708Z,1.25
2019-03-15T02:56:03.871Z,1.84
2019-03-15T02:57:03.592Z,1.61
2019-03-15T02:58:03.089Z,1.79
2019-03-15T02:59:03.600Z,2.05
2019-03-15T03:00:03.522Z,1.75
2019-03-15T03:01:03.708Z,1.76
2019-03-15T03:02:03.740Z,2.01
2019-03-15T03:03:03.540Z,1.78
2019-03-15T03:04:03.540Z,1.64
2019-03-15T03:05:03.377Z,2.09
2019-03-15T03:06:03.635Z,2.11
2019-03-15T03:07:03.618Z,1.97
2019-03-15T03:08:03.545Z,1.99
2019-03-15T03:09:03.546Z,1.99
2019-03-15T03:10:03.396Z,2.48
2019-03-15T03:11:03.037Z,2.41
2019-03-15T03:12:03.278Z,2.41
2019-03-15T03:13:03.064Z,2.29
2019-03-15T03:14:04.598Z,2.29
2019-03-15T03:15:03.135Z,1.91
2019-03-15T03:16:02.809Z,2.15
2019-03-15T03:17:03.227Z,2.23
2019-03-15T03:18:02.837Z,1.72
2019-03-15T03:19:03.019Z,1.99
2019-03-15T03:20:03.248Z,2.1
2019-03-15T03:21:02.904Z,1.82
2019-03-15T03:22:03.154Z,2.06
2019-03-15T03:23:04.238Z,1.66
2019-03-15T03:24:03.613Z,2
2019-03-15T03:25:03.069Z,1.62
2019-03-15T03:26:03.719Z,1.69
2019-03-15T03:27:02.683Z,1.69
2019-03-15T03:28:02.553Z,1.66
2019-03-15T03:29:03.697Z,1.59
2019-03-15T03:30:02.931Z,1.45
2019-03-15T03:31:03.572Z,1.99
2019-03-15T03:32:03.039Z,1.88
2019-03-15T03:33:03.221Z,1.79
2019-03-15T03:34:02.901Z,2.08
2019-03-15T03:35:03.125Z,1.91
2019-03-15T03:36:03.581Z,2.64
2019-03-15T03:37:03.541Z,2.09
2019-03-15T03:38:03.655Z,2.46
2019-03-15T03:39:03.482Z,2.2
2019-03-15T03:40:03.502Z,1.62
2019-03-15T03:41:03.209Z,1.95
2019-03-15T03:42:03.498Z,1.62
2019-03-15T03:43:03.539Z,2.16
2019-03-15T03:44:03.472Z,2.3
2019-03-15T03:45:03.546Z,1.93
2019-03-15T03:46:03.406Z,2.04
2019-03-15T03:47:03.493Z,2.12
2019-03-15T03:48:03.650Z,1.88
2019-03-15T03:49:03.438Z,1.55
2019-03-15T03:50:03.348Z,1.6
2019-03-15T03:51:03.336Z,2.23
2019-03-15T03:52:03.235Z,2.09
2019-03-15T03:53:03.004Z,1.89
2019-03-15T03:54:04.475Z,1.68
2019-03-15T03:55:03.383Z,1.7
2019-03-15T03:56:03.111Z,1.68
2019-03-15T03:57:03.318Z,1.64
2019-03-15T03:58:03.106Z,1.72
2019-03-15T03:59:03.342Z,1.72
2019-03-15T04:00:03.104Z,1.78
2019-03-15T04:01:03.416Z,1.78
2019-03-15T04:02:02.876Z,1.98
2019-03-15T04:03:02.672Z,1.95
2019-03-15T04:04:02.934Z,1.95
2019-03-15T04:05:02.790Z,1.99
2019-03-15T04:06:02.892Z,1.92
2019-03-15T04:07:02.945Z,2.47
2019-03-15T04:08:02.694Z,1.99
2019-03-15T04:09:03.692Z,1.75
2019-03-15T04:10:05.886Z,1.74
2019-03-15T04:11:03.815Z,2.56
2019-03-15T04:12:03.661Z,2.26
2019-03-15T04:13:03.381Z,2.64
2019-03-15T04:14:03.789Z,2.95
2019-03-15T04:15:03.752Z,2.57
2019-03-15T04:16:03.538Z,2.52
2019-03-15T04:17:03.445Z,2.15
2019-03-15T04:18:06.800Z,2.22
2019-03-15T04:19:03.409Z,2.8
2019-03-15T04:20:03.442Z,2.47
2019-03-15T04:21:03.724Z,2.23
2019-03-15T04:22:03.228Z,3.11
2019-03-15T04:23:03.693Z,2.65
2019-03-15T04:24:03.236Z,3
2019-03-15T04:25:07.277Z,3.11
2019-03-15T04:26:03.235Z,4.3
2019-03-15T04:27:03.541Z,5.25
2019-03-15T04:28:03.343Z,4.5
2019-03-15T04:29:03.326Z,3.92
2019-03-15T04:30:03.310Z,4.69
2019-03-15T04:31:02.945Z,4.34
2019-03-15T04:32:03.291Z,3.94
2019-03-15T04:33:03.032Z,3.96
2019-03-15T04:34:03.147Z,4.04
2019-03-15T04:35:03.165Z,4.6
2019-03-15T04:36:03.200Z,5.17
2019-03-15T04:37:02.957Z,4.55
2019-03-15T04:38:03.109Z,4.36
2019-03-15T04:39:02.917Z,5.46
2019-03-15T04:40:03.031Z,4.64
2019-03-15T04:41:02.764Z,3.63
2019-03-15T04:42:03.699Z,3.34
2019-03-15T04:43:02.810Z,3.99
2019-03-15T04:44:03.610Z,4.36
2019-03-15T04:45:03.107Z,6.18
2019-03-15T04:46:03.667Z,3.99
2019-03-15T04:47:02.967Z,3.83
2019-03-15T04:48:02.879Z,3.93
2019-03-15T04:49:02.784Z,3.93
2019-03-15T04:50:03.649Z,4.05
2019-03-15T04:51:02.742Z,3.65
2019-03-15T04:52:03.702Z,3.65
2019-03-15T04:53:03.678Z,3.72
2019-03-15T04:54:06.013Z,3.72
2019-03-15T04:55:03.597Z,4.45
2019-03-15T04:56:03.653Z,4.09
2019-03-15T04:57:03.498Z,4.14
2019-03-15T04:58:03.562Z,4.42
2019-03-15T04:59:03.493Z,4.33
2019-03-15T05:00:03.664Z,3.96
2019-03-15T05:01:03.431Z,4.54
2019-03-15T05:02:04.193Z,4.97
2019-03-15T05:03:03.256Z,4.5
2019-03-15T05:04:03.178Z,4.61
2019-03-15T05:05:03.408Z,3.88
2019-03-15T05:06:04.215Z,4.01
2019-03-15T05:07:03.654Z,4.04
2019-03-15T05:08:03.336Z,4.24
2019-03-15T05:09:03.523Z,4.02
2019-03-15T05:10:03.246Z,3.59
2019-03-15T05:11:03.308Z,4.06
2019-03-15T05:12:03.166Z,4.62
2019-03-15T05:13:03.591Z,4.26
2019-03-15T05:14:03.644Z,3.62
2019-03-15T05:15:03.597Z,3.78
2019-03-15T05:16:03.314Z,4.04
2019-03-15T05:17:03.362Z,3.76
2019-03-15T05:18:03.408Z,3.45
2019-03-15T05:19:03.058Z,4.23
2019-03-15T05:20:03.515Z,4.47
2019-03-15T05:21:02.978Z,5.22
2019-03-15T05:22:02.925Z,4.45
2019-03-15T05:23:02.943Z,4.44
2019-03-15T05:24:03.435Z,4.35
2019-03-15T05:25:03.221Z,4.62
2019-03-15T05:26:03.074Z,3.84
2019-03-15T05:27:03.142Z,4.24
2019-03-15T05:28:02.913Z,4.67
2019-03-15T05:29:02.664Z,3.18
2019-03-15T05:30:02.967Z,4.12
2019-03-15T05:31:02.819Z,3.4
2019-03-15T05:32:02.920Z,3.53
2019-03-15T05:33:03.796Z,3.98
2019-03-15T05:34:02.837Z,4.16
2019-03-15T05:35:02.863Z,3.81
2019-03-15T05:36:03.711Z,4
2019-03-15T05:37:02.727Z,3.82
2019-03-15T05:38:03.553Z,3.94
2019-03-15T05:39:03.642Z,3.94
2019-03-15T05:40:03.333Z,4.08
2019-03-15T05:41:03.505Z,4.12
2019-03-15T05:42:03.396Z,4.12
2019-03-15T05:43:03.358Z,3.56
2019-03-15T05:44:03.590Z,3.56
2019-03-15T05:45:03.697Z,3.23
2019-03-15T05:46:03.313Z,3.39
2019-03-15T05:47:03.401Z,3.39
2019-03-15T05:48:03.198Z,3.84
2019-03-15T05:49:03.319Z,4.2
2019-03-15T05:50:03.333Z,3.57
2019-03-15T05:51:03.378Z,3.04
2019-03-15T05:52:03.534Z,3.28
2019-03-15T05:53:03.252Z,3.52
2019-03-15T05:54:02.920Z,2.98
2019-03-15T05:55:03.648Z,2.98
2019-03-15T05:56:03.324Z,3.18
2019-03-15T05:57:03.213Z,3.61
2019-03-15T05:58:03.069Z,3.94
2019-03-15T05:59:03.065Z,3.42
2019-03-15T06:00:03.338Z,3.26
2019-03-15T06:01:02.714Z,3.73
2019-03-15T06:02:03.363Z,3.23
2019-03-15T06:03:03.095Z,3.65
2019-03-15T06:04:03.054Z,2.92
2019-03-15T06:05:03.514Z,3.51
2019-03-15T06:06:03.035Z,3.55
2019-03-15T06:07:03.028Z,3.55
2019-03-15T06:08:03.133Z,3.49
2019-03-15T06:09:02.736Z,2.71
2019-03-15T06:10:01.831Z,3.19
2019-03-15T06:11:02.619Z,3.11
2019-03-15T06:12:02.940Z,2.84
2019-03-15T06:13:02.801Z,2.75
2019-03-15T06:14:03.771Z,3.73
2019-03-15T06:15:02.969Z,2.51
2019-03-15T06:16:02.802Z,2.54
2019-03-15T06:17:02.975Z,3.02
2019-03-15T06:18:02.751Z,2.51
2019-03-15T06:19:03.715Z,2.99
2019-03-15T06:20:06.605Z,3.9
2019-03-15T06:21:02.263Z,3.14
2019-03-15T06:22:03.477Z,2.65
2019-03-15T06:23:03.217Z,2.45
2019-03-15T06:24:03.489Z,2.72
2019-03-15T06:25:03.521Z,2.64
2019-03-15T06:26:03.298Z,2.12
2019-03-15T06:27:03.443Z,2.72
2019-03-15T06:28:03.479Z,2.38
2019-03-15T06:29:03.231Z,2.38
2019-03-15T06:30:03.739Z,2.38
2019-03-15T06:31:03.186Z,2.64
2019-03-15T06:32:02.953Z,2.64
2019-03-15T06:33:02.652Z,2.58
2019-03-15T06:34:03.308Z,2.58
2019-03-15T06:35:03.351Z,2.79
2019-03-15T06:36:02.970Z,1.96
2019-03-15T06:37:03.367Z,2.39
2019-03-15T06:38:03.138Z,2.39
2019-03-15T06:39:02.863Z,2.91
2019-03-15T06:40:03.191Z,2.18
2019-03-15T06:41:02.817Z,2.18
2019-03-15T06:42:03.193Z,2.31
2019-03-15T06:43:02.990Z,2.21
2019-03-15T06:44:02.864Z,2.51
2019-03-15T06:45:03.033Z,2.13
2019-03-15T06:46:02.973Z,2.72
2019-03-15T06:47:03.134Z,2.16
2019-03-15T06:48:03.052Z,2.72
2019-03-15T06:49:02.983Z,2.45
2019-03-15T06:50:03.184Z,2.15
2019-03-15T06:51:02.935Z,2.32
2019-03-15T06:52:03.291Z,2.24
2019-03-15T06:53:03.167Z,2.12
2019-03-15T06:54:12.000Z,1.86
2019-03-15T06:55:05.631Z,3.22
2019-03-15T06:56:03.055Z,2.17
2019-03-15T06:57:02.842Z,2.15
2019-03-15T06:58:03.398Z,2.5
2019-03-15T06:59:03.028Z,2.33
2019-03-15T07:00:04.073Z,2.36
2019-03-15T07:01:03.085Z,2.24
2019-03-15T07:02:02.713Z,2.14
2019-03-15T07:03:02.706Z,2.72
2019-03-15T07:04:03.321Z,2.19
2019-03-15T07:05:03.186Z,2.29
2019-03-15T07:06:03.491Z,2.64
2019-03-15T07:07:03.618Z,2.45
2019-03-15T07:08:03.474Z,2.74
2019-03-15T07:09:02.934Z,2.43
2019-03-15T07:10:03.747Z,2.39
2019-03-15T07:11:02.727Z,2.14
2019-03-15T07:12:10.073Z,2.14
2019-03-15T07:13:03.579Z,2.26
2019-03-15T07:14:03.536Z,2.37
2019-03-15T07:15:03.544Z,2.36
2019-03-15T07:16:03.309Z,2.38
2019-03-15T07:17:03.468Z,2.18
2019-03-15T07:18:03.231Z,2.35
2019-03-15T07:19:03.436Z,2.55
2019-03-15T07:20:03.510Z,2.55
2019-03-15T07:21:03.305Z,2.16
2019-03-15T07:22:03.129Z,2.16
2019-03-15T07:23:03.199Z,2.38
2019-03-15T07:24:02.677Z,2.46
2019-03-15T07:25:02.782Z,2.33
2019-03-15T07:26:02.834Z,2.59
2019-03-15T07:27:13.494Z,2.48
2019-03-15T07:28:02.755Z,2.59
2019-03-15T07:29:02.972Z,2.61
2019-03-15T07:30:02.984Z,2.31
2019-03-15T07:31:02.813Z,2.46
2019-03-15T07:32:02.904Z,2.1
2019-03-15T07:33:02.648Z,2.35
2019-03-15T07:34:02.887Z,2.11
2019-03-15T07:35:03.720Z,2.11
2019-03-15T07:36:03.396Z,2.36
2019-03-15T07:37:03.270Z,2.36
2019-03-15T07:38:02.781Z,2.34
2019-03-15T07:39:03.683Z,2.23
2019-03-15T07:40:03.551Z,2.23
2019-03-15T07:41:03.420Z,2.16
2019-03-15T07:42:02.984Z,2.15
2019-03-15T07:43:05.546Z,2.65
2019-03-15T07:44:03.790Z,2.24
2019-03-15T07:45:03.478Z,2.05
2019-03-15T07:46:03.767Z,2.53
2019-03-15T07:47:03.407Z,2.37
2019-03-15T07:48:03.214Z,2.55
2019-03-15T07:49:03.570Z,2.25
2019-03-15T07:50:03.258Z,2.54
2019-03-15T07:51:02.894Z,2.54
2019-03-15T07:52:04.219Z,2.21
2019-03-15T07:53:03.261Z,2.78
2019-03-15T07:54:03.102Z,2.55
2019-03-15T07:55:03.033Z,2.55
2019-03-15T07:56:03.003Z,2.2
2019-03-15T07:57:03.643Z,2.84
2019-03-15T07:58:02.835Z,2.36
2019-03-15T07:59:02.814Z,2.36
2019-03-15T08:00:03.167Z,1.95
2019-03-15T08:01:02.942Z,2.3
2019-03-15T08:02:02.852Z,2.3
2019-03-15T08:03:02.958Z,2.06
2019-03-15T08:04:17.242Z,1.95
2019-03-15T08:05:02.999Z,1.95
2019-03-15T08:06:02.974Z,2.49
2019-03-15T08:07:02.854Z,2.5
2019-03-15T08:08:03.212Z,2.14
2019-03-15T08:09:02.671Z,2.2
2019-03-15T08:10:02.833Z,2.36
2019-03-15T08:11:03.630Z,2.12
2019-03-15T08:12:02.873Z,2.49
2019-03-15T08:13:03.521Z,2.65
2019-03-15T08:14:03.502Z,2.38
2019-03-15T08:15:02.846Z,2.42
2019-03-15T08:16:03.433Z,2.15
2019-03-15T08:17:03.563Z,2.28
2019-03-15T08:18:03.230Z,2.08
2019-03-15T08:19:05.353Z,2.17
2019-03-15T08:20:03.705Z,2.41
2019-03-15T08:21:02.415Z,2.33
2019-03-15T08:22:03.523Z,2.58
2019-03-15T08:23:03.474Z,2.01
2019-03-15T08:24:03.649Z,2.35
2019-03-15T08:25:03.609Z,1.91
2019-03-15T08:26:03.210Z,2.62
2019-03-15T08:27:03.641Z,2.51
2019-03-15T08:28:03.642Z,2.39
2019-03-15T08:29:03.675Z,2.48
2019-03-15T08:30:03.002Z,2.19
2019-03-15T08:31:02.875Z,2.08
2019-03-15T08:32:03.512Z,2.42
2019-03-15T08:33:11.123Z,2.92
2019-03-15T08:34:03.299Z,2.42
2019-03-15T08:35:04.440Z,2.14
2019-03-15T08:36:03.303Z,2.38
2019-03-15T08:37:03.052Z,2.52
2019-03-15T08:38:05.578Z,2.64
2019-03-15T08:39:03.449Z,2.1
2019-03-15T08:40:03.728Z,3.17
2019-03-15T08:41:03.597Z,3.26
2019-03-15T08:42:03.357Z,2.99
2019-03-15T08:43:03.190Z,2.15
2019-03-15T08:44:03.040Z,2.15
2019-03-15T08:45:02.200Z,2.99
2019-03-15T08:46:03.455Z,2.4
2019-03-15T08:47:02.909Z,2.4
2019-03-15T08:48:03.314Z,2.78
2019-03-15T08:49:02.910Z,2.56
2019-03-15T08:50:03.083Z,2.56
2019-03-15T08:51:03.166Z,2.96
2019-03-15T08:52:04.366Z,2.58
2019-03-15T08:53:03.026Z,2.96
2019-03-15T08:54:02.947Z,2.35
2019-03-15T08:55:06.068Z,2.94
2019-03-15T08:56:02.907Z,3.14
2019-03-15T08:57:02.914Z,2.78
2019-03-15T08:58:19.050Z,2.88
2019-03-15T08:59:03.696Z,2.95
2019-03-15T09:00:03.664Z,2.95
2019-03-15T09:01:03.430Z,2.99
2019-03-15T09:02:03.613Z,2.36
2019-03-15T09:03:02.472Z,2.67
2019-03-15T09:04:02.829Z,3.25
2019-03-15T09:05:02.960Z,2.81
2019-03-15T09:06:03.703Z,3.38
2019-03-15T09:07:03.481Z,2.96
2019-03-15T09:08:03.703Z,3.09
2019-03-15T09:09:03.428Z,2.88
2019-03-15T09:10:03.948Z,2.94
2019-03-15T09:11:03.466Z,2.84
2019-03-15T09:12:03.320Z,2.46
2019-03-15T09:13:03.173Z,2.69
2019-03-15T09:14:03.736Z,3.34
2019-03-15T09:15:03.573Z,2.96
2019-03-15T09:16:03.357Z,2.68
2019-03-15T09:17:03.235Z,3.61
2019-03-15T09:18:03.384Z,3.08
2019-03-15T09:19:03.369Z,3.1
2019-03-15T09:20:03.443Z,2.87
2019-03-15T09:21:01.582Z,3.55
2019-03-15T09:22:03.277Z,2.6
2019-03-15T09:23:03.391Z,3.07
2019-03-15T09:24:03.227Z,3.01
2019-03-15T09:25:02.969Z,3.34
2019-03-15T09:26:03.524Z,2.94
2019-03-15T09:27:03.221Z,3.01
2019-03-15T09:28:03.185Z,4.15
2019-03-15T09:29:03.465Z,3.38
2019-03-15T09:30:03.067Z,3.31
2019-03-15T09:31:02.926Z,2.68
2019-03-15T09:32:09.212Z,2.5
2019-03-15T09:33:03.529Z,2.5
2019-03-15T09:34:03.238Z,3.44
2019-03-15T09:35:03.088Z,3.44
2019-03-15T09:36:03.346Z,2.54
2019-03-15T09:37:03.021Z,2.26
2019-03-15T09:38:02.959Z,2.26
2019-03-15T09:39:03.173Z,2.87
2019-03-15T09:40:02.986Z,2.1
2019-03-15T09:41:02.973Z,2.1
2019-03-15T09:42:03.559Z,2.47
2019-03-15T09:43:02.742Z,2.69
2019-03-15T09:44:02.854Z,2.49
2019-03-15T09:45:02.736Z,2.28
2019-03-15T09:46:02.677Z,2.73
2019-03-15T09:47:03.890Z,2.65
2019-03-15T09:48:03.522Z,2.46
2019-03-15T09:49:03.840Z,2.09
2019-03-15T09:50:03.362Z,2.25
2019-03-15T09:51:03.444Z,2.77
2019-03-15T09:52:03.444Z,2.5
2019-03-15T09:53:06.461Z,2.45
2019-03-15T09:54:03.293Z,2.05
2019-03-15T09:55:03.381Z,1.87
2019-03-15T09:56:03.276Z,1.56
2019-03-15T09:57:03.269Z,1.15
2019-03-15T09:58:03.343Z,1.19
2019-03-15T09:59:03.102Z,1.82
2019-03-15T10:00:03.358Z,1.33
2019-03-15T10:01:04.258Z,1.17
2019-03-15T10:02:03.150Z,1.01
2019-03-15T10:03:02.969Z,0.98
2019-03-15T10:04:03.181Z,0.91
2019-03-15T10:05:11.680Z,0.96
2019-03-15T10:06:17.947Z,0.96
2019-03-15T10:07:02.846Z,0.68
2019-03-15T10:08:02.828Z,0.91
2019-03-15T10:09:03.759Z,0.81
2019-03-15T10:10:14.186Z,0.72
2019-03-15T10:11:03.532Z,0.86
2019-03-15T10:12:03.701Z,0.92
2019-03-15T10:13:06.571Z,0.72
2019-03-15T10:14:03.638Z,0.87
2019-03-15T10:15:03.604Z,0.56
2019-03-15T10:16:03.497Z,0.71
2019-03-15T10:17:03.720Z,0.92
2019-03-15T10:18:03.546Z,0.66
2019-03-15T10:19:03.664Z,0.66
2019-03-15T10:20:03.452Z,0.86
2019-03-15T10:21:03.636Z,0.86
2019-03-15T10:22:03.482Z,0.86
2019-03-15T10:23:06.683Z,0.76
2019-03-15T10:24:02.817Z,0.76
2019-03-15T10:25:03.490Z,1.08
2019-03-15T10:26:02.932Z,1.08
2019-03-15T10:27:03.661Z,0.72
2019-03-15T10:28:02.516Z,0.73
2019-03-15T10:29:16.230Z,0.86
2019-03-15T10:30:03.473Z,0.79
2019-03-15T10:31:03.467Z,0.72
2019-03-15T10:32:03.578Z,0.78
2019-03-15T10:33:03.164Z,0.95
2019-03-15T10:34:06.061Z,0.78
2019-03-15T10:35:03.458Z,0.86
2019-03-15T10:36:03.305Z,0.83
2019-03-15T10:37:06.417Z,1.42
2019-03-15T10:38:03.251Z,0.84
2019-03-15T10:39:03.134Z,0.96
2019-03-15T10:40:02.735Z,1.05
2019-03-15T10:41:03.081Z,1.24
2019-03-15T10:42:02.924Z,1.94
2019-03-15T10:43:02.999Z,2.09
2019-03-15T10:44:04.460Z,3.32
2019-03-15T10:45:02.998Z,2.18
2019-03-15T10:46:06.488Z,1.83
2019-03-15T10:47:03.525Z,1.62
2019-03-15T10:48:02.810Z,1.59
2019-03-15T10:49:03.590Z,0.94
2019-03-15T10:50:03.649Z,0.84
2019-03-15T10:51:03.424Z,2.25
2019-03-15T10:52:03.674Z,3.74
2019-03-15T10:53:03.642Z,0.92
2019-03-15T10:54:03.446Z,0.8
2019-03-15T10:55:03.459Z,0.82
2019-03-15T10:56:03.302Z,0.76
2019-03-15T10:57:03.217Z,0.81
2019-03-15T10:58:03.630Z,1.09
2019-03-15T10:59:03.458Z,1.11
2019-03-15T11:00:03.423Z,0.68
2019-03-15T11:01:03.352Z,0.63
2019-03-15T11:02:03.071Z,1.21
2019-03-15T11:03:03.241Z,1.18
2019-03-15T11:04:03.440Z,1.36
2019-03-15T11:05:03.352Z,1
2019-03-15T11:06:03.086Z,1.63
2019-03-15T11:07:02.741Z,1.68
2019-03-15T11:08:02.885Z,2.02
2019-03-15T11:09:02.969Z,4.95
2019-03-15T11:10:02.849Z,1.89
2019-03-15T11:11:02.941Z,1.89
2019-03-15T11:12:03.103Z,1.89
2019-03-15T11:13:02.736Z,1.08
2019-03-15T11:14:03.039Z,1.08
2019-03-15T11:15:02.685Z,0.69
2019-03-15T11:16:02.983Z,1.11
2019-03-15T11:17:02.917Z,1.13
2019-03-15T11:18:03.536Z,1.13
2019-03-15T11:19:03.756Z,1.71
2019-03-15T11:20:03.435Z,1.51
2019-03-15T11:21:03.058Z,1.51
2019-03-15T11:22:03.369Z,1.32
2019-03-15T11:23:03.720Z,2.74
2019-03-15T11:24:03.658Z,3.08
2019-03-15T11:25:03.824Z,1.55
2019-03-15T11:26:14.139Z,1.47
2019-03-15T11:27:02.749Z,1.39
2019-03-15T11:28:03.861Z,1.58
2019-03-15T11:29:03.568Z,1.75
2019-03-15T11:30:03.626Z,1.36
2019-03-15T11:31:03.576Z,1.65
2019-03-15T11:32:03.371Z,1.18
2019-03-15T11:33:03.500Z,1.27
2019-03-15T11:34:03.383Z,2.16
2019-03-15T11:35:03.341Z,1.83
2019-03-15T11:36:03.300Z,3.02
2019-03-15T11:37:03.752Z,2.41
2019-03-15T11:38:03.474Z,1.11
2019-03-15T11:39:02.970Z,1.41
2019-03-15T11:40:03.840Z,0.94
2019-03-15T11:41:03.213Z,1.34
2019-03-15T11:42:03.183Z,1.59
2019-03-15T11:43:03.110Z,1.18
2019-03-15T11:44:03.039Z,1.32
2019-03-15T11:45:03.203Z,1.37
2019-03-15T11:46:03.126Z,1.55
2019-03-15T11:47:03.649Z,1.83
2019-03-15T11:48:04.677Z,1.94
2019-03-15T11:49:03.508Z,1.89
2019-03-15T11:50:03.494Z,1.23
2019-03-15T11:51:03.140Z,1.55
2019-03-15T11:52:02.874Z,1.34
2019-03-15T11:53:02.720Z,1.34
2019-03-15T11:54:02.952Z,1.06
2019-03-15T11:55:03.236Z,1.14
2019-03-15T11:56:03.159Z,1.14
2019-03-15T11:57:03.347Z,1.14
2019-03-15T11:58:03.310Z,1.21
2019-03-15T11:59:03.159Z,1.21
2019-03-15T12:00:03.406Z,1.2
2019-03-15T12:01:03.287Z,1.2
2019-03-15T12:02:04.654Z,1.35
2019-03-15T12:03:02.981Z,0.95
2019-03-15T12:04:03.217Z,1.38
2019-03-15T12:05:03.036Z,1.12
2019-03-15T12:06:02.963Z,1.12
2019-03-15T12:07:02.838Z,0.95
2019-03-15T12:08:02.779Z,0.97
2019-03-15T12:09:02.839Z,1.03
2019-03-15T12:10:02.843Z,1.11
2019-03-15T12:11:02.831Z,1.05
2019-03-15T12:12:03.930Z,0.99
2019-03-15T12:13:02.927Z,0.91
2019-03-15T12:14:03.384Z,1.22
2019-03-15T12:15:03.083Z,1.02
2019-03-15T12:16:02.865Z,0.96
2019-03-15T12:17:03.529Z,1.23
2019-03-15T12:18:03.308Z,1.24
2019-03-15T12:19:03.359Z,1.31
2019-03-15T12:20:03.715Z,1.01
2019-03-15T12:21:03.421Z,1.19
2019-03-15T12:22:06.877Z,1.32
2019-03-15T12:23:03.647Z,0.93
2019-03-15T12:24:02.932Z,1.19
2019-03-15T12:25:03.767Z,1.36
2019-03-15T12:26:02.641Z,1.51
2019-03-15T12:27:03.598Z,0.82
2019-03-15T12:28:03.698Z,0.99
2019-03-15T12:29:03.417Z,0.95
2019-03-15T12:30:03.497Z,0.98
2019-03-15T12:31:03.370Z,1.17
2019-03-15T12:32:03.419Z,0.96
2019-03-15T12:33:03.397Z,0.92
2019-03-15T12:34:03.366Z,1.06
2019-03-15T12:35:03.430Z,0.99
2019-03-15T12:36:03.676Z,0.96
2019-03-15T12:37:03.408Z,1.22
2019-03-15T12:38:03.502Z,0.96
2019-03-15T12:39:03.137Z,1.11
2019-03-15T12:40:03.007Z,0.95
2019-03-15T12:41:03.114Z,1.12
2019-03-15T12:42:03.306Z,1.17
2019-03-15T12:43:02.772Z,1.03
2019-03-15T12:44:03.155Z,0.98
2019-03-15T12:45:03.175Z,1.33
2019-03-15T12:46:02.763Z,1.19
2019-03-15T12:47:06.447Z,1.05
2019-03-15T12:48:02.978Z,1.46
2019-03-15T12:49:02.742Z,1.46
2019-03-15T12:50:03.601Z,1.32
2019-03-15T12:51:02.854Z,1.32
2019-03-15T12:52:03.758Z,1.39
2019-03-15T12:53:03.739Z,1.65
2019-03-15T12:54:04.585Z,1.65
2019-03-15T12:55:03.753Z,1.48
2019-03-15T12:56:03.663Z,1.4
2019-03-15T12:57:03.464Z,1.53
2019-03-15T12:58:03.679Z,1.4
2019-03-15T12:59:03.477Z,1.24
2019-03-15T13:00:03.452Z,1.16
2019-03-15T13:01:03.295Z,1.45
2019-03-15T13:02:03.450Z,1.05
2019-03-15T13:03:03.331Z,0.96
2019-03-15T13:04:03.384Z,1.23
2019-03-15T13:05:03.300Z,1.11
2019-03-15T13:06:03.480Z,1.26
2019-03-15T13:07:03.221Z,1.21
2019-03-15T13:08:03.201Z,1.18
2019-03-15T13:09:03.286Z,1.22
2019-03-15T13:10:02.871Z,1.32
2019-03-15T13:11:03.158Z,1.71
2019-03-15T13:12:03.298Z,1.38
2019-03-15T13:13:03.290Z,1.24
2019-03-15T13:14:03.279Z,1.18
2019-03-15T13:15:03.187Z,1.56
2019-03-15T13:16:03.219Z,1.37
2019-03-15T13:17:03.058Z,1.34
2019-03-15T13:18:02.904Z,1.79
2019-03-15T13:19:03.172Z,2.46
2019-03-15T13:20:03.045Z,3.4